Time;durP1;ratioP1;P1;durP2;ratioP2;P2;SDS_P1;SDS_P2;PMS_P1;PMS_P2;Temp;Humidity;BMP_temperature;BMP_pressure;BME280_temperature;BME280_humidity;BME280_pressure;Samples;Min_cycle;Max_cycle;Signal;HPM_P1;HPM_P2
2022/05/30 00:00:02;;;;;;;;;;;;;;;10.40;58.81;100342.66;5070939;28;20363;-23
2022/05/30 00:02:27;;;;;;;;;;;;;;;10.40;58.89;100347.06;5071716;28;20333;-23
2022/05/30 00:04:52;;;;;;;;;;;;;;;10.40;58.89;100347.06;5071732;28;19912;-23
2022/05/30 00:07:17;;;;;;;;;;;;;;;10.40;59.03;100347.94;5070257;28;19912;-23
2022/05/30 00:09:42;;;;;;;;;;;;;;;10.40;58.91;100345.31;5064126;28;19908;-23
2022/05/30 00:12:08;;;;;;;;;;;;;;;10.43;59.06;100346.19;5071214;28;19909;-23
2022/05/30 00:14:33;;;;;;;;;;;;;;;10.44;58.75;100340.00;5071075;28;19942;-23
2022/05/30 00:16:58;;;;;;;;;;;;;;;10.43;59.06;100344.38;5071098;28;19916;-23
2022/05/30 00:19:24;;;;;;;;;;;;;;;10.45;59.27;100347.03;5070137;28;19912;-23
2022/05/30 00:21:49;;;;;;;;;;;;;;;10.46;59.38;100348.78;5068731;28;19915;-23
2022/05/30 00:24:14;;;;;;;;;;;;;;;10.47;59.37;100347.91;5066141;28;19941;-23
2022/05/30 00:26:39;;;;;;;;;;;;;;;10.44;59.52;100345.28;5070181;28;20011;-23
2022/05/30 00:29:05;;;;;;;;;;;;;;;10.44;59.54;100354.03;5068688;28;19912;-23
2022/05/30 00:31:30;;;;;;;;;;;;;;;10.43;59.44;100349.66;5071215;28;19912;-23
2022/05/30 00:33:55;;;;;;;;;;;;;;;10.44;59.64;100347.91;5070397;28;19931;-23
2022/05/30 00:36:21;;;;;;;;;;;;;;;10.43;59.66;100340.91;5071180;28;19912;-23
2022/05/30 00:38:46;;;;;;;;;;;;;;;10.44;59.84;100346.13;5070512;28;19929;-23
2022/05/30 00:41:11;;;;;;;;;;;;;;;10.46;60.03;100351.41;5069750;28;20398;-23
2022/05/30 00:43:37;;;;;;;;;;;;;;;10.47;60.15;100347.91;5069851;28;20387;-23
2022/05/30 00:46:06;;;;;;;;;;;;;;;10.43;59.94;100347.03;5071072;28;19908;-23
2022/05/30 00:48:33;;;;;;;;;;;;;;;10.45;59.76;100352.31;5070813;28;19951;-23
2022/05/30 00:51:02;;;;;;;;;;;;;;;10.44;59.91;100347.91;5069300;28;19915;-23
2022/05/30 00:53:27;;;;;;;;;;;;;;;10.46;60.14;100340.88;5069326;28;19951;-23
2022/05/30 00:55:52;;;;;;;;;;;;;;;10.46;60.19;100338.22;5067579;28;19958;-23
2022/05/30 00:58:18;;;;;;;;;;;;;;;10.46;60.31;100340.88;5069678;28;19938;-23
2022/05/30 01:00:43;;;;;;;;;;;;;;;10.47;59.90;100345.28;5069050;28;20320;-23
2022/05/30 01:08:36;;;;;;;;;;;;;;;10.45;60.33;100328.59;5068874;28;19920;-23
2022/05/30 01:11:01;;;;;;;;;;;;;;;10.43;60.07;100330.34;5066439;28;19913;-23
2022/05/30 01:13:27;;;;;;;;;;;;;;;10.42;60.29;100331.22;5069591;28;19908;-23
2022/05/30 01:15:53;;;;;;;;;;;;;;;10.43;59.97;100328.56;5069555;28;19994;-23
2022/05/30 01:18:33;;;;;;;;;;;;;;;10.45;60.43;100333.84;5070683;28;19915;-23
2022/05/30 01:21:17;;;;;;;;;;;;;;;10.49;60.73;100332.91;5065982;28;19931;-23
2022/05/30 01:23:42;;;;;;;;;;;;;;;10.48;60.31;100325.91;5069252;28;19923;-23
2022/05/30 01:26:08;;;;;;;;;;;;;;;10.47;60.35;100324.19;5070137;28;19908;-23
2022/05/30 01:28:42;;;;;;;;;;;;;;;10.46;60.55;100325.03;5070176;28;19969;-23
2022/05/30 01:31:07;;;;;;;;;;;;;;;10.44;60.59;100326.81;5067367;28;19908;-23
2022/05/30 01:33:32;;;;;;;;;;;;;;;10.45;60.44;100325.94;5066336;28;19939;-23
2022/05/30 01:35:58;;;;;;;;;;;;;;;10.46;60.31;100330.31;5067919;28;20287;-23
2022/05/30 01:38:24;;;;;;;;;;;;;;;10.49;61.12;100339.06;5069064;28;19908;-23
2022/05/30 01:40:50;;;;;;;;;;;;;;;10.51;61.15;100333.78;5069491;28;20393;-23
2022/05/30 01:43:16;;;;;;;;;;;;;;;10.51;60.80;100331.16;5069883;28;19908;-23
2022/05/30 01:45:41;;;;;;;;;;;;;;;10.51;61.03;100331.16;5068135;28;19912;-23
2022/05/30 01:48:06;;;;;;;;;;;;;;;10.53;61.06;100331.97;5067993;28;20002;-23
2022/05/30 01:50:31;;;;;;;;;;;;;;;10.53;61.04;100324.06;5069499;28;19908;-23
2022/05/30 01:52:57;;;;;;;;;;;;;;;10.53;61.16;100324.06;5067009;28;19962;-23
2022/05/30 01:55:22;;;;;;;;;;;;;;;10.53;60.95;100329.34;5067759;28;19978;-23
2022/05/30 01:57:47;;;;;;;;;;;;;;;10.54;61.12;100320.56;5060581;28;20652;-23
2022/05/30 02:00:13;;;;;;;;;;;;;;;10.54;61.00;100314.41;5067139;28;19912;-23
2022/05/30 02:02:38;;;;;;;;;;;;;;;10.54;61.21;100322.31;5068769;28;20901;-23
2022/05/30 02:05:04;;;;;;;;;;;;;;;10.54;61.15;100315.28;5068615;28;19986;-24
2022/05/30 02:07:29;;;;;;;;;;;;;;;10.53;61.07;100321.44;5068492;28;19916;-23
2022/05/30 02:09:55;;;;;;;;;;;;;;;10.55;61.08;100317.03;5069805;28;19908;-23
2022/05/30 02:12:20;;;;;;;;;;;;;;;10.54;61.10;100320.56;5067991;28;19958;-23
2022/05/30 02:14:46;;;;;;;;;;;;;;;10.54;61.05;100319.69;5069543;28;19920;-23
2022/05/30 02:17:11;;;;;;;;;;;;;;;10.52;61.10;100317.06;5068203;28;19919;-23
2022/05/30 02:19:37;;;;;;;;;;;;;;;10.53;61.31;100316.16;5067501;28;19916;-23
2022/05/30 02:22:03;;;;;;;;;;;;;;;10.55;60.97;100316.13;5066135;28;19920;-23
2022/05/30 02:24:28;;;;;;;;;;;;;;;10.53;61.04;100318.78;5068670;28;20314;-23
2022/05/30 02:26:53;;;;;;;;;;;;;;;10.53;61.21;100313.53;5069180;28;19935;-23
2022/05/30 02:29:19;;;;;;;;;;;;;;;10.53;61.20;100313.53;5068798;28;20096;-23
2022/05/30 02:31:44;;;;;;;;;;;;;;;10.53;61.22;100308.25;5065223;28;19917;-23
2022/05/30 02:36:54;;;;;;;;;;;;;;;10.54;61.16;100317.91;5068778;28;20054;-23
2022/05/30 02:39:20;;;;;;;;;;;;;;;10.54;61.23;100315.28;5065589;28;20395;-23
2022/05/30 02:41:46;;;;;;;;;;;;;;;10.54;61.33;100319.69;5068968;28;19961;-23
2022/05/30 02:44:11;;;;;;;;;;;;;;;10.54;61.44;100311.75;5067849;28;19999;-23
2022/05/30 02:46:37;;;;;;;;;;;;;;;10.56;61.35;100320.50;5068071;28;19912;-23
2022/05/30 02:49:02;;;;;;;;;;;;;;;10.55;61.32;100317.03;5065888;28;19920;-23
2022/05/30 02:51:27;;;;;;;;;;;;;;;10.54;61.48;100323.19;5068726;28;19908;-23
2022/05/30 02:53:53;;;;;;;;;;;;;;;10.52;61.36;100317.94;5068531;28;19931;-23
2022/05/30 02:56:18;;;;;;;;;;;;;;;10.53;61.68;100324.06;5067948;28;19920;-23
2022/05/30 02:58:43;;;;;;;;;;;;;;;10.52;61.27;100322.34;5067683;28;19978;-23
2022/05/30 03:01:09;;;;;;;;;;;;;;;10.51;61.58;100325.88;5068120;28;19912;-23
2022/05/30 03:03:34;;;;;;;;;;;;;;;10.50;61.80;100329.38;5070997;28;19915;-23
2022/05/30 03:05:59;;;;;;;;;;;;;;;10.49;61.44;100328.53;5069913;28;20328;-23
2022/05/30 03:08:24;;;;;;;;;;;;;;;10.49;61.39;100332.91;5073175;28;20091;-23
2022/05/30 03:10:50;;;;;;;;;;;;;;;10.48;61.45;100336.47;5070930;28;19961;-23
2022/05/30 03:13:15;;;;;;;;;;;;;;;10.46;61.53;100338.22;5071434;28;19923;-23
2022/05/30 03:15:40;;;;;;;;;;;;;;;10.45;61.76;100340.00;5072469;28;19916;-23
2022/05/30 03:18:06;;;;;;;;;;;;;;;10.42;61.76;100336.50;5072145;28;19955;-23
2022/05/30 03:20:31;;;;;;;;;;;;;;;10.42;61.81;100339.13;5071064;28;19955;-23
2022/05/30 03:22:57;;;;;;;;;;;;;;;10.41;61.58;100343.56;5071854;28;19942;-23
2022/05/30 03:25:22;;;;;;;;;;;;;;;10.40;61.80;100336.50;5071023;28;20264;-23
2022/05/30 03:27:47;;;;;;;;;;;;;;;10.37;62.09;100345.34;5072541;28;20287;-23
2022/05/30 03:30:13;;;;;;;;;;;;;;;10.37;61.88;100350.63;5071292;28;19934;-23
2022/05/30 03:32:38;;;;;;;;;;;;;;;10.36;62.09;100348.00;5069836;28;19962;-23
2022/05/30 03:35:04;;;;;;;;;;;;;;;10.34;61.81;100352.44;5072392;28;20387;-23
2022/05/30 03:37:30;;;;;;;;;;;;;;;10.34;61.89;100350.66;5072351;28;19961;-23
2022/05/30 03:39:55;;;;;;;;;;;;;;;10.34;61.93;100352.44;5070934;28;19908;-23
2022/05/30 03:42:20;;;;;;;;;;;;;;;10.35;62.29;100364.72;5068069;28;19920;-23
2022/05/30 03:44:45;;;;;;;;;;;;;;;10.34;62.24;100361.19;5072141;28;20302;-23
2022/05/30 03:47:11;;;;;;;;;;;;;;;10.34;62.08;100348.00;5068207;28;19913;-23
2022/05/30 03:49:36;;;;;;;;;;;;;;;10.36;62.23;100358.53;5071692;28;20322;-23
2022/05/30 03:52:01;;;;;;;;;;;;;;;10.37;61.90;100358.53;5070990;28;19925;-23
2022/05/30 03:54:27;;;;;;;;;;;;;;;10.37;62.06;100353.25;5071798;28;19947;-23
2022/05/30 03:56:52;;;;;;;;;;;;;;;10.38;62.09;100354.13;5069500;28;19912;-23
2022/05/30 03:59:17;;;;;;;;;;;;;;;10.38;62.32;100357.63;5070788;28;19916;-23
2022/05/30 04:01:42;;;;;;;;;;;;;;;10.39;61.70;100355.88;5068235;28;20003;-23
2022/05/30 04:04:08;;;;;;;;;;;;;;;10.41;62.09;100362.00;5071375;28;20356;-23
2022/05/30 04:06:33;;;;;;;;;;;;;;;10.40;62.37;100376.94;5070451;28;19908;-23
2022/05/30 04:08:58;;;;;;;;;;;;;;;10.39;62.41;100364.66;5069491;28;19916;-23
2022/05/30 04:11:23;;;;;;;;;;;;;;;10.40;62.71;100374.31;5068983;28;19916;-23
2022/05/30 04:13:49;;;;;;;;;;;;;;;10.40;62.46;100371.66;5070671;28;19912;-23
2022/05/30 04:16:14;;;;;;;;;;;;;;;10.42;62.59;100373.41;5070396;28;19917;-23
2022/05/30 04:18:39;;;;;;;;;;;;;;;10.43;62.66;100375.19;5070367;28;19959;-23
2022/05/30 04:21:08;;;;;;;;;;;;;;;10.43;62.54;100370.75;5070965;28;19908;-23
2022/05/30 04:23:33;;;;;;;;;;;;;;;10.43;62.71;100378.66;5067495;28;19915;-23
2022/05/30 04:25:59;;;;;;;;;;;;;;;10.43;62.38;100375.19;5069598;28;19912;-23
2022/05/30 04:28:25;;;;;;;;;;;;;;;10.44;62.79;100376.91;5070059;28;19938;-24
2022/05/30 04:30:50;;;;;;;;;;;;;;;10.44;63.07;100372.50;5070306;28;19913;-23
2022/05/30 04:33:15;;;;;;;;;;;;;;;10.44;63.25;100376.91;5069990;28;19920;-23
2022/05/30 04:35:42;;;;;;;;;;;;;;;10.43;63.32;100370.75;5070122;28;19924;-23
2022/05/30 04:38:07;;;;;;;;;;;;;;;10.45;63.21;100379.56;5067985;28;20330;-23
2022/05/30 04:40:33;;;;;;;;;;;;;;;10.44;62.87;100377.75;5069550;28;19951;-23
2022/05/30 04:42:58;;;;;;;;;;;;;;;10.46;63.21;100380.41;5068390;28;20015;-23
2022/05/30 04:45:24;;;;;;;;;;;;;;;10.47;62.88;100384.81;5069637;28;20359;-23
2022/05/30 04:47:49;;;;;;;;;;;;;;;10.46;63.19;100375.16;5067275;28;20291;-23
2022/05/30 04:50:15;;;;;;;;;;;;;;;10.47;63.20;100382.19;5069434;28;19913;-23
2022/05/30 04:52:41;;;;;;;;;;;;;;;10.47;63.41;100385.66;5069158;28;19912;-23
2022/05/30 04:55:06;;;;;;;;;;;;;;;10.47;63.19;100392.72;5070698;28;19928;-23
2022/05/30 04:57:32;;;;;;;;;;;;;;;10.47;63.33;100390.94;5065135;28;19920;-23
2022/05/30 04:59:58;;;;;;;;;;;;;;;10.47;63.22;100390.94;5069604;28;19970;-23
2022/05/30 05:02:23;;;;;;;;;;;;;;;10.46;63.41;100383.06;5066605;28;19919;-23
2022/05/30 05:04:48;;;;;;;;;;;;;;;10.47;63.35;100387.47;5067970;28;19912;-23
2022/05/30 05:07:13;;;;;;;;;;;;;;;10.47;63.42;100388.31;5069887;28;19973;-23
2022/05/30 05:09:40;;;;;;;;;;;;;;;10.47;63.19;100387.47;5067581;28;19997;-23
2022/05/30 05:12:06;;;;;;;;;;;;;;;10.48;62.99;100392.72;5067016;28;19912;-23
2022/05/30 05:14:31;;;;;;;;;;;;;;;10.49;63.18;100396.19;5066676;28;19934;-23
2022/05/30 05:16:56;;;;;;;;;;;;;;;10.48;63.25;100395.34;5062670;28;19916;-23
2022/05/30 05:19:21;;;;;;;;;;;;;;;10.49;63.46;100388.28;5066939;28;19912;-23
2022/05/30 05:21:47;;;;;;;;;;;;;;;10.50;63.29;100395.31;5066996;28;19963;-23
2022/05/30 05:24:12;;;;;;;;;;;;;;;10.49;63.51;100397.09;5066504;28;20288;-23
2022/05/30 05:26:44;;;;;;;;;;;;;;;10.50;63.54;100397.94;5067097;28;19915;-23
2022/05/30 05:29:10;;;;;;;;;;;;;;;10.52;63.66;100396.16;5065049;28;19947;-23
2022/05/30 05:31:35;;;;;;;;;;;;;;;10.55;63.53;100401.41;5065144;28;19947;-23
2022/05/30 05:34:01;;;;;;;;;;;;;;;10.55;63.12;100397.88;5067786;28;19920;-23
2022/05/30 05:36:27;;;;;;;;;;;;;;;10.58;63.72;100393.47;5069972;28;19923;-23
2022/05/30 05:38:53;;;;;;;;;;;;;;;10.60;63.24;100404.84;5069640;28;19915;-23
2022/05/30 05:41:18;;;;;;;;;;;;;;;10.61;63.54;100398.66;5068183;28;19924;-23
2022/05/30 05:43:43;;;;;;;;;;;;;;;10.64;63.52;100390.72;5067077;28;19920;-23
2022/05/30 05:46:12;;;;;;;;;;;;;;;10.67;63.35;100396.84;5066326;28;19969;-23
2022/05/30 05:48:37;;;;;;;;;;;;;;;10.69;63.51;100395.94;5067807;28;19912;-23
2022/05/30 05:51:03;;;;;;;;;;;;;;;10.71;63.49;100401.19;5066512;28;20368;-23
2022/05/30 05:53:28;;;;;;;;;;;;;;;10.74;63.71;100398.53;5062843;28;19928;-23
2022/05/30 05:55:53;;;;;;;;;;;;;;;10.76;64.00;100407.25;5068652;28;19924;-23
2022/05/30 05:58:19;;;;;;;;;;;;;;;10.78;63.88;100408.97;5069074;28;19908;-23
2022/05/30 06:00:44;;;;;;;;;;;;;;;10.81;64.31;100402.81;5068024;28;19916;-23
2022/05/30 06:03:09;;;;;;;;;;;;;;;10.85;63.98;100408.91;5063573;28;19960;-23
2022/05/30 06:05:34;;;;;;;;;;;;;;;10.86;64.33;100408.88;5068173;28;20003;-23
2022/05/30 06:08:01;;;;;;;;;;;;;;;10.87;64.86;100413.25;5064431;28;19912;-23
2022/05/30 06:10:26;;;;;;;;;;;;;;;10.89;64.34;100411.47;5048553;28;20578;-23
2022/05/30 06:12:51;;;;;;;;;;;;;;;10.93;64.34;100406.16;5066003;28;19916;-23
2022/05/30 06:15:17;;;;;;;;;;;;;;;10.95;63.84;100409.63;5067728;28;20359;-23
2022/05/30 06:17:43;;;;;;;;;;;;;;;10.97;64.10;100413.13;5068972;28;19919;-23
2022/05/30 06:20:09;;;;;;;;;;;;;;;10.99;64.11;100411.34;5067291;28;19915;-23
2022/05/30 06:22:34;;;;;;;;;;;;;;;11.00;63.86;100413.94;5060290;28;19916;-23
2022/05/30 06:24:59;;;;;;;;;;;;;;;11.02;63.76;100417.44;5067815;28;20265;-23
2022/05/30 06:27:24;;;;;;;;;;;;;;;11.06;64.03;100417.38;5060522;28;20003;-23
2022/05/30 06:29:51;;;;;;;;;;;;;;;11.08;63.96;100420.88;5068653;28;19954;-23
2022/05/30 06:32:16;;;;;;;;;;;;;;;11.11;64.18;100421.69;5066967;28;19908;-23
2022/05/30 06:34:41;;;;;;;;;;;;;;;11.14;64.59;100426.94;5067739;28;19923;-23
2022/05/30 06:37:08;;;;;;;;;;;;;;;11.17;64.02;100426.00;5068603;28;19916;-23
2022/05/30 06:39:33;;;;;;;;;;;;;;;11.19;64.38;100432.16;5066109;28;19916;-23
2022/05/30 06:41:58;;;;;;;;;;;;;;;11.23;64.72;100430.31;5066789;28;19919;-23
2022/05/30 06:44:24;;;;;;;;;;;;;;;11.25;64.80;100434.69;5068666;28;20355;-23
2022/05/30 06:46:49;;;;;;;;;;;;;;;11.26;65.12;100432.91;5068826;28;20280;-23
2022/05/30 06:49:15;;;;;;;;;;;;;;;11.29;64.42;100438.16;5068386;28;19912;-23
2022/05/30 06:51:40;;;;;;;;;;;;;;;11.32;64.43;100434.59;5067429;28;19916;-23
2022/05/30 06:54:06;;;;;;;;;;;;;;;11.33;65.06;100431.94;5065362;28;19917;-23
2022/05/30 06:56:33;;;;;;;;;;;;;;;11.35;65.05;100438.06;5066366;28;20307;-23
2022/05/30 06:58:58;;;;;;;;;;;;;;;11.37;65.00;100428.34;5067697;28;19912;-23
2022/05/30 07:01:28;;;;;;;;;;;;;;;11.39;64.70;100444.16;5062540;28;19908;-23
2022/05/30 07:03:53;;;;;;;;;;;;;;;11.41;65.04;100443.22;5066308;28;20405;-23
2022/05/30 07:06:23;;;;;;;;;;;;;;;11.44;65.34;100438.81;5062934;28;19958;-23
2022/05/30 07:08:48;;;;;;;;;;;;;;;11.47;65.59;100441.41;5068089;28;19931;-23
2022/05/30 07:11:14;;;;;;;;;;;;;;;11.51;65.79;100440.44;5068151;28;20376;-23
2022/05/30 07:13:39;;;;;;;;;;;;;;;11.54;65.37;100440.41;5067457;28;20292;-23
2022/05/30 07:16:05;;;;;;;;;;;;;;;11.58;66.50;100443.84;5066477;28;19916;-23
2022/05/30 07:18:30;;;;;;;;;;;;;;;11.61;66.84;100446.44;5068347;28;19916;-23
2022/05/30 07:20:56;;;;;;;;;;;;;;;11.66;66.65;100448.13;5046657;28;19916;-23
2022/05/30 07:23:22;;;;;;;;;;;;;;;11.70;67.17;100453.34;5067303;28;19963;-23
2022/05/30 07:25:47;;;;;;;;;;;;;;;11.74;67.09;100455.03;5068306;28;19986;-23
2022/05/30 07:28:12;;;;;;;;;;;;;;;11.78;68.00;100452.28;5059108;28;20366;-23
2022/05/30 07:30:38;;;;;;;;;;;;;;;11.82;67.47;100458.41;5067921;28;20427;-23
2022/05/30 07:33:03;;;;;;;;;;;;;;;11.88;68.06;100454.78;5066877;28;20013;-23
2022/05/30 07:35:28;;;;;;;;;;;;;;;11.92;67.95;100457.34;5066059;28;20011;-23
2022/05/30 07:37:53;;;;;;;;;;;;;;;11.98;68.32;100453.72;5066997;28;19919;-24
2022/05/30 07:40:20;;;;;;;;;;;;;;;12.03;66.95;100453.63;5082153;28;20003;-23
2022/05/30 07:42:45;;;;;;;;;;;;;;;12.11;67.95;100464.09;5067570;28;19916;-24
2022/05/30 07:45:10;;;;;;;;;;;;;;;12.17;67.31;100462.19;5065844;28;19920;-23
2022/05/30 07:47:36;;;;;;;;;;;;;;;12.23;67.26;100463.84;5066285;28;19923;-23
2022/05/30 07:50:04;;;;;;;;;;;;;;;12.30;67.46;100467.25;5068288;28;20391;-23
2022/05/30 07:52:32;;;;;;;;;;;;;;;12.37;66.98;100463.56;5070076;28;20261;-23
2022/05/30 07:54:57;;;;;;;;;;;;;;;12.44;66.94;100467.00;5070697;28;19932;-23
2022/05/30 07:57:50;;;;;;;;;;;;;;;12.50;66.35;100466.84;5071027;28;19920;-23
2022/05/30 08:00:08;;;;;;;;;;;;;;;12.55;66.41;100464.13;5069296;28;19955;-23
2022/05/30 08:02:34;;;;;;;;;;;;;;;12.61;66.07;100458.72;5070027;28;19962;-23
2022/05/30 08:04:59;;;;;;;;;;;;;;;12.65;66.22;100463.03;5069687;28;19920;-23
2022/05/30 08:07:25;;;;;;;;;;;;;;;12.70;66.29;100463.78;5067651;28;19927;-23
2022/05/30 08:09:50;;;;;;;;;;;;;;;12.80;65.40;100471.53;5069351;28;19946;-23
2022/05/30 08:12:15;;;;;;;;;;;;;;;12.86;65.63;100471.41;5069501;28;20320;-23
2022/05/30 08:14:40;;;;;;;;;;;;;;;12.92;65.10;100470.38;5070299;28;20360;-23
2022/05/30 08:17:07;;;;;;;;;;;;;;;12.99;65.61;100476.41;5071096;28;19916;-23
2022/05/30 08:19:33;;;;;;;;;;;;;;;13.08;64.78;100465.63;5070329;28;20355;-23
2022/05/30 08:22:01;;;;;;;;;;;;;;;13.16;64.46;100474.25;5070032;28;19919;-23
2022/05/30 08:24:28;;;;;;;;;;;;;;;13.24;64.13;100467.94;5070649;28;19912;-23
2022/05/30 08:26:53;;;;;;;;;;;;;;;13.29;64.17;100473.97;5068971;28;19919;-23
2022/05/30 08:29:18;;;;;;;;;;;;;;;13.39;63.88;100472.84;5071161;28;19912;-23
2022/05/30 08:31:43;;;;;;;;;;;;;;;13.46;63.76;100474.44;5070781;28;19914;-23
2022/05/30 08:34:15;;;;;;;;;;;;;;;13.52;63.77;100475.22;5070726;28;20276;-23
2022/05/30 08:36:40;;;;;;;;;;;;;;;13.60;63.79;100460.00;5070056;28;20011;-23
2022/05/30 08:41:50;;;;;;;;;;;;;;;13.78;62.73;100464.00;5070893;28;19915;-23
2022/05/30 08:44:16;;;;;;;;;;;;;;;13.86;62.45;100469.06;5067363;28;20747;-23
2022/05/30 08:46:49;;;;;;;;;;;;;;;13.92;61.68;100466.28;5068004;28;19919;-23
2022/05/30 08:49:20;;;;;;;;;;;;;;;13.98;61.98;100474.03;5068988;28;19927;-23
2022/05/30 08:51:45;;;;;;;;;;;;;;;14.05;61.64;100469.47;5068228;28;19968;-23
2022/05/30 08:54:30;;;;;;;;;;;;;;;14.11;61.30;100473.75;5068808;28;20339;-24
2022/05/30 08:56:55;;;;;;;;;;;;;;;14.14;61.41;100473.63;5068075;28;20295;-23
2022/05/30 08:59:23;;;;;;;;;;;;;;;14.18;61.21;100472.66;5071270;28;19989;-23
2022/05/30 09:02:08;;;;;;;;;;;;;;;14.26;61.27;100475.09;5067703;28;19916;-23
2022/05/30 09:04:54;;;;;;;;;;;;;;;14.31;61.20;100472.31;5068655;28;19920;-23
2022/05/30 09:07:21;;;;;;;;;;;;;;;14.32;60.90;100488.19;5067768;28;20390;-23
2022/05/30 09:09:59;;;;;;;;;;;;;;;14.33;60.88;100484.63;5065800;28;20364;-23
2022/05/30 09:12:27;;;;;;;;;;;;;;;14.33;60.91;100489.03;5065801;28;20390;-24
2022/05/30 09:15:01;;;;;;;;;;;;;;;14.36;61.00;100494.25;5066881;28;19925;-23
2022/05/30 09:17:41;;;;;;;;;;;;;;;14.38;60.83;100492.47;5067599;28;19926;-23
2022/05/30 09:20:08;;;;;;;;;;;;;;;14.37;60.89;100486.28;5065033;28;19931;-23
2022/05/30 09:22:34;;;;;;;;;;;;;;;14.39;60.88;100491.53;5067585;28;19995;-23
2022/05/30 09:27:45;;;;;;;;;;;;;;;14.41;60.65;100492.38;5068625;28;19963;-24
2022/05/30 09:30:10;;;;;;;;;;;;;;;14.40;60.35;100493.25;5068509;28;19947;-24
2022/05/30 09:32:56;;;;;;;;;;;;;;;14.40;60.60;100492.41;5070041;28;19952;-23
2022/05/30 09:35:23;;;;;;;;;;;;;;;14.41;60.55;100492.38;5068770;28;19916;-23
2022/05/30 09:37:50;;;;;;;;;;;;;;;14.44;60.56;100492.25;5069548;28;20011;-24
2022/05/30 09:40:15;;;;;;;;;;;;;;;14.48;60.55;100501.88;5068624;28;19916;-24
2022/05/30 09:42:51;;;;;;;;;;;;;;;14.52;60.69;100493.84;5068001;28;19923;-23
2022/05/30 09:45:27;;;;;;;;;;;;;;;14.53;60.31;100495.56;5067912;28;20018;-24
2022/05/30 09:48:03;;;;;;;;;;;;;;;14.57;60.42;100495.44;5068503;28;20368;-23
2022/05/30 09:50:28;;;;;;;;;;;;;;;14.61;60.42;100494.44;5069135;28;19953;-24
2022/05/30 09:52:53;;;;;;;;;;;;;;;14.67;60.31;100488.06;5067869;28;19920;-23
2022/05/30 09:55:20;;;;;;;;;;;;;;;14.73;60.20;100489.69;5068492;28;19908;-24
2022/05/30 09:57:45;;;;;;;;;;;;;;;14.79;59.84;100492.19;5069183;28;19915;-23
2022/05/30 10:00:12;;;;;;;;;;;;;;;14.83;59.93;100487.66;5068928;28;19916;-24
2022/05/30 10:02:38;;;;;;;;;;;;;;;14.91;59.43;100495.41;5069111;28;20049;-24
2022/05/30 10:05:08;;;;;;;;;;;;;;;14.97;59.08;100495.22;5069076;28;20014;-24
2022/05/30 10:07:34;;;;;;;;;;;;;;;15.06;59.03;100491.41;5067701;28;19963;-23
2022/05/30 10:09:59;;;;;;;;;;;;;;;15.15;58.75;100493.78;5067852;28;19958;-23
2022/05/30 10:12:30;;;;;;;;;;;;;;;15.22;58.51;100482.06;5067620;28;20748;-23
2022/05/30 10:14:56;;;;;;;;;;;;;;;15.31;58.62;100488.00;5064248;28;19965;-24
2022/05/30 10:17:26;;;;;;;;;;;;;;;15.37;58.38;100487.78;5066945;28;19920;-24
2022/05/30 10:19:52;;;;;;;;;;;;;;;15.47;58.24;100483.91;5067115;28;19946;-24
2022/05/30 10:28:15;;;;;;;;;;;;;;;15.85;57.93;100482.69;5006528;28;19956;-23
2022/05/30 10:30:44;;;;;;;;;;;;;;;15.98;57.26;100488.47;5067143;28;19908;-24
2022/05/30 10:33:09;;;;;;;;;;;;;;;16.07;57.05;100490.81;5067825;28;20382;-23
2022/05/30 10:35:41;;;;;;;;;;;;;;;16.15;56.92;100495.88;5068689;28;19908;-24
2022/05/30 10:38:25;;;;;;;;;;;;;;;16.21;56.63;100492.97;5049812;28;20291;-24
2022/05/30 10:41:28;;;;;;;;;;;;;;;16.25;56.59;100497.28;5068773;28;19962;-24
2022/05/30 10:43:56;;;;;;;;;;;;;;;16.28;56.42;100497.16;5005857;28;19945;-23
2022/05/30 10:46:24;;;;;;;;;;;;;;;16.27;56.09;100499.88;5005569;28;20009;-24
2022/05/30 10:49:10;;;;;;;;;;;;;;;16.31;56.37;100503.31;5036909;28;19908;-24
2022/05/30 10:51:59;;;;;;;;;;;;;;;16.32;56.16;100495.28;5067286;28;20275;-24
2022/05/30 10:54:27;;;;;;;;;;;;;;;16.34;56.08;100505.88;5059946;28;19983;-24
2022/05/30 10:56:54;;;;;;;;;;;;;;;16.38;56.20;100510.16;5068770;28;19908;-23
2022/05/30 10:59:32;;;;;;;;;;;;;;;16.40;55.79;100508.28;5067763;28;20154;-23
2022/05/30 11:02:04;;;;;;;;;;;;;;;16.43;56.12;100508.19;5066480;28;19919;-24
2022/05/30 11:04:34;;;;;;;;;;;;;;;16.47;55.65;100512.47;5063473;28;19951;-23
2022/05/30 11:07:29;;;;;;;;;;;;;;;16.51;55.50;100507.91;5066443;28;20421;-24
2022/05/30 11:10:05;;;;;;;;;;;;;;;16.61;55.66;100503.97;5044173;28;20008;-24
2022/05/30 11:12:33;;;;;;;;;;;;;;;16.68;55.31;100507.28;5064789;28;19916;-24
2022/05/30 11:15:04;;;;;;;;;;;;;;;16.73;55.09;100501.75;5065325;28;19974;-24
2022/05/30 11:17:38;;;;;;;;;;;;;;;16.79;55.41;100505.09;5067728;28;19947;-24
2022/05/30 11:20:04;;;;;;;;;;;;;;;16.87;55.26;100507.44;5065634;28;20022;-24
2022/05/30 11:22:35;;;;;;;;;;;;;;;16.93;55.35;100506.34;5067057;28;19958;-24
2022/05/30 11:25:00;;;;;;;;;;;;;;;17.01;54.81;100506.06;5069314;28;19908;-24
2022/05/30 11:27:29;;;;;;;;;;;;;;;17.08;54.24;100504.03;5071166;28;19914;-24
2022/05/30 11:30:03;;;;;;;;;;;;;;;17.10;53.95;100510.19;5072378;28;19912;-24
2022/05/30 11:32:44;;;;;;;;;;;;;;;17.11;53.85;100506.59;5069888;28;19912;-24
2022/05/30 11:35:09;;;;;;;;;;;;;;;17.13;53.78;100512.72;5071559;28;20394;-24
2022/05/30 11:37:47;;;;;;;;;;;;;;;17.13;53.97;100510.06;5071887;28;20403;-24
2022/05/30 11:40:27;;;;;;;;;;;;;;;17.11;54.06;100517.25;5071209;28;19957;-24
2022/05/30 11:42:52;;;;;;;;;;;;;;;17.06;53.99;100514.75;5071385;28;19915;-24
2022/05/30 11:45:29;;;;;;;;;;;;;;;17.03;54.31;100515.72;5071656;28;19916;-24
2022/05/30 11:47:58;;;;;;;;;;;;;;;16.99;54.33;100522.09;5070685;28;19914;-24
2022/05/30 11:50:23;;;;;;;;;;;;;;;16.95;54.75;100524.94;5070301;28;19920;-24
2022/05/30 11:52:57;;;;;;;;;;;;;;;16.91;54.95;100526.84;5071178;28;19916;-24
2022/05/30 11:55:24;;;;;;;;;;;;;;;16.87;55.35;100519.91;5071262;28;19912;-24
2022/05/30 11:57:57;;;;;;;;;;;;;;;16.85;55.00;100521.75;5069205;28;20371;-24
2022/05/30 12:00:22;;;;;;;;;;;;;;;16.80;55.19;100527.25;5068605;28;19916;-24
2022/05/30 12:02:47;;;;;;;;;;;;;;;16.76;55.01;100518.50;5071499;28;19912;-24
2022/05/30 12:05:20;;;;;;;;;;;;;;;16.74;55.59;100515.03;5071756;28;19958;-24
2022/05/30 12:07:49;;;;;;;;;;;;;;;16.73;54.85;100521.28;5069316;28;19915;-24
2022/05/30 12:10:26;;;;;;;;;;;;;;;16.69;55.22;100517.00;5069154;28;19928;-24
2022/05/30 12:12:57;;;;;;;;;;;;;;;16.65;55.03;100518.94;5069226;28;19927;-24
2022/05/30 12:15:25;;;;;;;;;;;;;;;16.61;54.71;100524.41;5070597;28;19916;-24
2022/05/30 12:23:50;;;;;;;;;;;;;;;16.46;54.84;100526.69;5068099;28;19919;-24
2022/05/30 12:26:17;;;;;;;;;;;;;;;16.43;54.57;100532.13;5067558;28;19916;-24
2022/05/30 12:28:42;;;;;;;;;;;;;;;16.39;54.85;100525.19;5069335;28;20003;-24
2022/05/30 12:31:07;;;;;;;;;;;;;;;16.37;54.94;100524.38;5068868;28;20045;-24
2022/05/30 12:33:33;;;;;;;;;;;;;;;16.34;54.81;100521.84;5065031;28;19923;-24
2022/05/30 12:36:10;;;;;;;;;;;;;;;16.32;54.48;100523.66;5064279;28;19947;-24
2022/05/30 12:38:50;;;;;;;;;;;;;;;16.30;54.71;100526.38;5068930;28;19912;-24
2022/05/30 12:41:25;;;;;;;;;;;;;;;16.28;55.03;100529.09;5063301;28;19947;-24
2022/05/30 12:43:51;;;;;;;;;;;;;;;16.28;54.94;100529.09;5068306;28;20007;-24
2022/05/30 12:46:17;;;;;;;;;;;;;;;16.30;54.81;100531.69;5068437;28;20370;-24
2022/05/30 12:48:58;;;;;;;;;;;;;;;16.29;54.88;100530.84;5069439;28;19952;-24
2022/05/30 12:51:24;;;;;;;;;;;;;;;16.33;54.84;100530.72;5066766;28;19912;-24
2022/05/30 12:53:57;;;;;;;;;;;;;;;16.37;54.98;100522.56;5068678;28;19963;-23
2022/05/30 12:56:37;;;;;;;;;;;;;;;16.42;55.39;100519.75;5067039;28;20371;-24
2022/05/30 12:59:03;;;;;;;;;;;;;;;16.50;55.26;100517.69;5067582;28;19912;-24
2022/05/30 13:01:31;;;;;;;;;;;;;;;16.57;54.64;100517.47;5068703;28;19923;-24